sensor_id;sensor_type;location;lat;lon;timestamp;P1;durP1;ratioP1;P2;durP2;ratioP2
17079;SDS011;8655;57.106;-2.088;2024-03-08T00:01:06;3.30;;;2.17;;
17079;SDS011;8655;57.106;-2.088;2024-03-08T00:03:32;3.83;;;2.30;;
17079;SDS011;8655;57.106;-2.088;2024-03-08T00:05:58;2.67;;;2.30;;
17079;SDS011;8655;57.106;-2.088;2024-03-08T00:08:24;3.60;;;2.17;;
17079;SDS011;8655;57.106;-2.088;2024-03-08T00:10:50;2.80;;;2.10;;
17079;SDS011;8655;57.106;-2.088;2024-03-08T00:13:15;2.77;;;2.00;;
17079;SDS011;8655;57.106;-2.088;2024-03-08T00:15:41;2.73;;;1.83;;
17079;SDS011;8655;57.106;-2.088;2024-03-08T00:18:07;3.83;;;2.20;;
17079;SDS011;8655;57.106;-2.088;2024-03-08T00:20:32;2.70;;;2.40;;
17079;SDS011;8655;57.106;-2.088;2024-03-08T00:22:58;3.30;;;2.10;;
17079;SDS011;8655;57.106;-2.088;2024-03-08T00:25:24;3.33;;;2.10;;
17079;SDS011;8655;57.106;-2.088;2024-03-08T00:27:49;3.17;;;2.23;;
17079;SDS011;8655;57.106;-2.088;2024-03-08T00:30:16;3.40;;;2.07;;
17079;SDS011;8655;57.106;-2.088;2024-03-08T00:32:41;2.15;;;1.95;;
17079;SDS011;8655;57.106;-2.088;2024-03-08T00:35:07;3.35;;;2.28;;
17079;SDS011;8655;57.106;-2.088;2024-03-08T00:37:33;3.10;;;2.00;;
17079;SDS011;8655;57.106;-2.088;2024-03-08T00:40:02;3.58;;;2.17;;
17079;SDS011;8655;57.106;-2.088;2024-03-08T00:42:28;5.28;;;2.00;;
17079;SDS011;8655;57.106;-2.088;2024-03-08T00:44:53;3.77;;;2.27;;
17079;SDS011;8655;57.106;-2.088;2024-03-08T00:47:19;2.33;;;2.10;;
17079;SDS011;8655;57.106;-2.088;2024-03-08T00:49:45;3.53;;;2.20;;
17079;SDS011;8655;57.106;-2.088;2024-03-08T00:52:11;2.80;;;2.20;;
17079;SDS011;8655;57.106;-2.088;2024-03-08T00:54:37;3.97;;;2.27;;
17079;SDS011;8655;57.106;-2.088;2024-03-08T00:57:03;4.18;;;2.28;;
17079;SDS011;8655;57.106;-2.088;2024-03-08T00:59:29;3.42;;;2.22;;
17079;SDS011;8655;57.106;-2.088;2024-03-08T01:01:58;2.20;;;2.00;;
17079;SDS011;8655;57.106;-2.088;2024-03-08T01:04:25;2.92;;;2.30;;
17079;SDS011;8655;57.106;-2.088;2024-03-08T01:06:53;3.28;;;2.08;;
17079;SDS011;8655;57.106;-2.088;2024-03-08T01:09:23;3.03;;;2.20;;
17079;SDS011;8655;57.106;-2.088;2024-03-08T01:11:52;2.90;;;2.10;;
17079;SDS011;8655;57.106;-2.088;2024-03-08T01:14:19;3.67;;;2.30;;
17079;SDS011;8655;57.106;-2.088;2024-03-08T01:16:47;2.57;;;1.90;;
17079;SDS011;8655;57.106;-2.088;2024-03-08T01:19:13;2.63;;;2.10;;
17079;SDS011;8655;57.106;-2.088;2024-03-08T01:21:40;3.23;;;2.30;;
17079;SDS011;8655;57.106;-2.088;2024-03-08T01:24:06;2.80;;;2.08;;
17079;SDS011;8655;57.106;-2.088;2024-03-08T01:26:32;2.93;;;2.00;;
17079;SDS011;8655;57.106;-2.088;2024-03-08T01:28:59;2.53;;;2.20;;
17079;SDS011;8655;57.106;-2.088;2024-03-08T01:31:25;3.58;;;2.20;;
17079;SDS011;8655;57.106;-2.088;2024-03-08T01:33:51;3.47;;;2.10;;
17079;SDS011;8655;57.106;-2.088;2024-03-08T01:36:18;2.33;;;1.93;;
17079;SDS011;8655;57.106;-2.088;2024-03-08T01:38:44;3.22;;;2.10;;
17079;SDS011;8655;57.106;-2.088;2024-03-08T01:41:10;2.38;;;2.17;;
17079;SDS011;8655;57.106;-2.088;2024-03-08T01:43:37;3.63;;;2.42;;
17079;SDS011;8655;57.106;-2.088;2024-03-08T01:46:03;2.80;;;1.90;;
17079;SDS011;8655;57.106;-2.088;2024-03-08T01:48:30;2.40;;;2.20;;
17079;SDS011;8655;57.106;-2.088;2024-03-08T01:50:57;2.40;;;2.20;;
17079;SDS011;8655;57.106;-2.088;2024-03-08T01:53:24;2.97;;;2.03;;
17079;SDS011;8655;57.106;-2.088;2024-03-08T01:55:52;2.77;;;1.97;;
17079;SDS011;8655;57.106;-2.088;2024-03-08T01:58:21;2.50;;;2.03;;
17079;SDS011;8655;57.106;-2.088;2024-03-08T02:00:49;3.03;;;2.40;;
17079;SDS011;8655;57.106;-2.088;2024-03-08T02:03:15;3.97;;;2.50;;
17079;SDS011;8655;57.106;-2.088;2024-03-08T02:05:41;3.77;;;2.30;;
17079;SDS011;8655;57.106;-2.088;2024-03-08T02:08:08;2.72;;;2.22;;
17079;SDS011;8655;57.106;-2.088;2024-03-08T02:10:39;3.58;;;2.67;;
17079;SDS011;8655;57.106;-2.088;2024-03-08T02:13:11;2.73;;;2.20;;
17079;SDS011;8655;57.106;-2.088;2024-03-08T02:15:49;2.93;;;2.30;;
17079;SDS011;8655;57.106;-2.088;2024-03-08T02:18:15;3.23;;;2.10;;
17079;SDS011;8655;57.106;-2.088;2024-03-08T02:20:42;4.20;;;2.43;;
17079;SDS011;8655;57.106;-2.088;2024-03-08T02:23:08;2.55;;;2.15;;
17079;SDS011;8655;57.106;-2.088;2024-03-08T02:25:34;3.63;;;2.33;;
17079;SDS011;8655;57.106;-2.088;2024-03-08T02:28:00;3.20;;;2.37;;
17079;SDS011;8655;57.106;-2.088;2024-03-08T02:30:26;2.20;;;1.90;;
17079;SDS011;8655;57.106;-2.088;2024-03-08T02:32:54;3.10;;;2.40;;
17079;SDS011;8655;57.106;-2.088;2024-03-08T02:35:20;4.10;;;2.30;;
17079;SDS011;8655;57.106;-2.088;2024-03-08T02:37:46;2.80;;;2.20;;
17079;SDS011;8655;57.106;-2.088;2024-03-08T02:40:13;4.15;;;2.20;;
17079;SDS011;8655;57.106;-2.088;2024-03-08T02:42:39;3.17;;;2.30;;
17079;SDS011;8655;57.106;-2.088;2024-03-08T02:45:05;2.83;;;2.40;;
17079;SDS011;8655;57.106;-2.088;2024-03-08T02:47:31;2.67;;;2.42;;
17079;SDS011;8655;57.106;-2.088;2024-03-08T02:49:57;3.15;;;2.30;;
17079;SDS011;8655;57.106;-2.088;2024-03-08T02:52:22;3.77;;;2.43;;
17079;SDS011;8655;57.106;-2.088;2024-03-08T02:54:48;3.53;;;2.40;;
17079;SDS011;8655;57.106;-2.088;2024-03-08T02:57:15;3.80;;;2.30;;
17079;SDS011;8655;57.106;-2.088;2024-03-08T02:59:41;3.73;;;2.73;;
17079;SDS011;8655;57.106;-2.088;2024-03-08T03:02:06;3.17;;;2.20;;
17079;SDS011;8655;57.106;-2.088;2024-03-08T03:04:35;2.73;;;2.40;;
17079;SDS011;8655;57.106;-2.088;2024-03-08T03:07:01;2.67;;;2.20;;
17079;SDS011;8655;57.106;-2.088;2024-03-08T03:09:26;3.37;;;2.30;;
17079;SDS011;8655;57.106;-2.088;2024-03-08T03:11:55;4.40;;;2.53;;
17079;SDS011;8655;57.106;-2.088;2024-03-08T03:14:21;2.97;;;2.50;;
17079;SDS011;8655;57.106;-2.088;2024-03-08T03:16:47;3.37;;;2.30;;
17079;SDS011;8655;57.106;-2.088;2024-03-08T03:19:13;4.13;;;2.53;;
17079;SDS011;8655;57.106;-2.088;2024-03-08T03:21:40;3.67;;;2.30;;
17079;SDS011;8655;57.106;-2.088;2024-03-08T03:24:08;3.80;;;2.80;;
17079;SDS011;8655;57.106;-2.088;2024-03-08T03:26:38;3.60;;;2.53;;
17079;SDS011;8655;57.106;-2.088;2024-03-08T03:29:07;3.38;;;2.60;;
17079;SDS011;8655;57.106;-2.088;2024-03-08T03:31:33;3.90;;;2.53;;
17079;SDS011;8655;57.106;-2.088;2024-03-08T03:33:59;3.17;;;2.47;;
17079;SDS011;8655;57.106;-2.088;2024-03-08T03:36:28;4.05;;;2.50;;
17079;SDS011;8655;57.106;-2.088;2024-03-08T03:38:58;4.10;;;2.40;;
17079;SDS011;8655;57.106;-2.088;2024-03-08T03:41:35;5.87;;;2.70;;
17079;SDS011;8655;57.106;-2.088;2024-03-08T03:44:01;2.97;;;2.23;;
17079;SDS011;8655;57.106;-2.088;2024-03-08T03:46:27;3.67;;;2.40;;
17079;SDS011;8655;57.106;-2.088;2024-03-08T03:48:56;3.37;;;2.47;;
17079;SDS011;8655;57.106;-2.088;2024-03-08T03:51:21;4.10;;;2.50;;
17079;SDS011;8655;57.106;-2.088;2024-03-08T03:53:47;3.07;;;2.30;;
17079;SDS011;8655;57.106;-2.088;2024-03-08T03:56:13;4.07;;;2.37;;
17079;SDS011;8655;57.106;-2.088;2024-03-08T03:58:39;5.20;;;2.50;;
17079;SDS011;8655;57.106;-2.088;2024-03-08T04:01:05;4.83;;;2.60;;
17079;SDS011;8655;57.106;-2.088;2024-03-08T04:03:30;4.03;;;2.43;;
17079;SDS011;8655;57.106;-2.088;2024-03-08T04:05:56;3.90;;;2.50;;
17079;SDS011;8655;57.106;-2.088;2024-03-08T04:08:22;3.20;;;2.50;;
17079;SDS011;8655;57.106;-2.088;2024-03-08T04:10:49;3.80;;;2.47;;
17079;SDS011;8655;57.106;-2.088;2024-03-08T04:13:16;3.70;;;2.50;;
17079;SDS011;8655;57.106;-2.088;2024-03-08T04:15:41;4.27;;;2.50;;
17079;SDS011;8655;57.106;-2.088;2024-03-08T04:18:10;3.20;;;2.50;;
17079;SDS011;8655;57.106;-2.088;2024-03-08T04:20:35;5.03;;;2.50;;
17079;SDS011;8655;57.106;-2.088;2024-03-08T04:23:02;2.90;;;2.30;;
17079;SDS011;8655;57.106;-2.088;2024-03-08T04:25:28;3.13;;;2.40;;
17079;SDS011;8655;57.106;-2.088;2024-03-08T04:27:53;2.73;;;2.13;;
17079;SDS011;8655;57.106;-2.088;2024-03-08T04:30:19;3.83;;;2.60;;
17079;SDS011;8655;57.106;-2.088;2024-03-08T04:32:46;2.43;;;2.10;;
17079;SDS011;8655;57.106;-2.088;2024-03-08T04:35:12;3.20;;;2.60;;
17079;SDS011;8655;57.106;-2.088;2024-03-08T04:37:38;3.40;;;2.33;;
17079;SDS011;8655;57.106;-2.088;2024-03-08T04:40:04;3.67;;;2.40;;
17079;SDS011;8655;57.106;-2.088;2024-03-08T04:42:30;2.83;;;2.30;;
17079;SDS011;8655;57.106;-2.088;2024-03-08T04:44:58;3.50;;;2.70;;
17079;SDS011;8655;57.106;-2.088;2024-03-08T04:47:23;3.13;;;2.23;;
17079;SDS011;8655;57.106;-2.088;2024-03-08T04:49:50;3.10;;;2.10;;
17079;SDS011;8655;57.106;-2.088;2024-03-08T04:52:15;2.60;;;2.13;;
17079;SDS011;8655;57.106;-2.088;2024-03-08T04:54:41;4.30;;;2.50;;
17079;SDS011;8655;57.106;-2.088;2024-03-08T04:57:08;2.93;;;2.13;;
17079;SDS011;8655;57.106;-2.088;2024-03-08T04:59:33;3.07;;;2.30;;
17079;SDS011;8655;57.106;-2.088;2024-03-08T05:01:59;3.97;;;2.70;;
17079;SDS011;8655;57.106;-2.088;2024-03-08T05:04:25;2.77;;;2.27;;
17079;SDS011;8655;57.106;-2.088;2024-03-08T05:06:51;2.30;;;2.10;;
17079;SDS011;8655;57.106;-2.088;2024-03-08T05:09:17;4.10;;;2.50;;
17079;SDS011;8655;57.106;-2.088;2024-03-08T05:11:44;4.13;;;2.20;;
17079;SDS011;8655;57.106;-2.088;2024-03-08T05:14:10;5.10;;;2.37;;
17079;SDS011;8655;57.106;-2.088;2024-03-08T05:16:37;4.03;;;2.60;;
17079;SDS011;8655;57.106;-2.088;2024-03-08T05:19:03;3.47;;;2.50;;
17079;SDS011;8655;57.106;-2.088;2024-03-08T05:21:29;3.97;;;2.37;;
17079;SDS011;8655;57.106;-2.088;2024-03-08T05:23:54;4.10;;;2.47;;
17079;SDS011;8655;57.106;-2.088;2024-03-08T05:26:20;4.37;;;2.40;;
17079;SDS011;8655;57.106;-2.088;2024-03-08T05:28:47;3.37;;;2.30;;
17079;SDS011;8655;57.106;-2.088;2024-03-08T05:31:23;3.40;;;2.30;;
17079;SDS011;8655;57.106;-2.088;2024-03-08T05:33:48;3.97;;;2.40;;
17079;SDS011;8655;57.106;-2.088;2024-03-08T05:36:14;3.27;;;2.10;;
17079;SDS011;8655;57.106;-2.088;2024-03-08T05:38:44;3.57;;;2.13;;
17079;SDS011;8655;57.106;-2.088;2024-03-08T05:41:10;3.63;;;2.20;;
17079;SDS011;8655;57.106;-2.088;2024-03-08T05:43:40;3.37;;;2.27;;
17079;SDS011;8655;57.106;-2.088;2024-03-08T05:46:06;4.10;;;2.67;;
17079;SDS011;8655;57.106;-2.088;2024-03-08T05:48:32;3.50;;;2.30;;
17079;SDS011;8655;57.106;-2.088;2024-03-08T05:50:58;2.47;;;2.20;;
17079;SDS011;8655;57.106;-2.088;2024-03-08T05:53:25;4.37;;;2.33;;
17079;SDS011;8655;57.106;-2.088;2024-03-08T05:55:51;3.30;;;2.43;;
17079;SDS011;8655;57.106;-2.088;2024-03-08T05:58:17;3.30;;;2.13;;
17079;SDS011;8655;57.106;-2.088;2024-03-08T06:00:43;2.43;;;2.10;;
17079;SDS011;8655;57.106;-2.088;2024-03-08T06:03:11;4.73;;;2.23;;
17079;SDS011;8655;57.106;-2.088;2024-03-08T06:05:36;2.87;;;2.00;;
17079;SDS011;8655;57.106;-2.088;2024-03-08T06:08:02;2.53;;;2.17;;
17079;SDS011;8655;57.106;-2.088;2024-03-08T06:10:29;3.00;;;2.10;;
17079;SDS011;8655;57.106;-2.088;2024-03-08T06:12:55;3.83;;;2.20;;
17079;SDS011;8655;57.106;-2.088;2024-03-08T06:15:21;3.13;;;2.40;;
17079;SDS011;8655;57.106;-2.088;2024-03-08T06:17:46;3.57;;;2.20;;
17079;SDS011;8655;57.106;-2.088;2024-03-08T06:20:12;3.37;;;2.33;;
17079;SDS011;8655;57.106;-2.088;2024-03-08T06:22:39;3.70;;;2.30;;
17079;SDS011;8655;57.106;-2.088;2024-03-08T06:25:06;3.20;;;2.10;;
17079;SDS011;8655;57.106;-2.088;2024-03-08T06:27:32;3.70;;;2.10;;
17079;SDS011;8655;57.106;-2.088;2024-03-08T06:29:59;2.93;;;2.00;;
17079;SDS011;8655;57.106;-2.088;2024-03-08T06:32:25;4.27;;;2.33;;
17079;SDS011;8655;57.106;-2.088;2024-03-08T06:34:51;3.73;;;2.07;;
17079;SDS011;8655;57.106;-2.088;2024-03-08T06:37:16;3.87;;;2.17;;
17079;SDS011;8655;57.106;-2.088;2024-03-08T06:39:47;4.40;;;2.20;;
17079;SDS011;8655;57.106;-2.088;2024-03-08T06:42:13;3.70;;;2.40;;
17079;SDS011;8655;57.106;-2.088;2024-03-08T06:44:39;3.43;;;2.27;;
17079;SDS011;8655;57.106;-2.088;2024-03-08T06:47:13;2.33;;;1.90;;
17079;SDS011;8655;57.106;-2.088;2024-03-08T06:49:40;3.20;;;2.20;;
17079;SDS011;8655;57.106;-2.088;2024-03-08T06:52:06;2.80;;;2.10;;
17079;SDS011;8655;57.106;-2.088;2024-03-08T06:54:34;2.17;;;1.90;;
17079;SDS011;8655;57.106;-2.088;2024-03-08T06:57:01;4.33;;;2.40;;
17079;SDS011;8655;57.106;-2.088;2024-03-08T06:59:30;2.40;;;1.93;;
17079;SDS011;8655;57.106;-2.088;2024-03-08T07:01:56;3.43;;;2.10;;
17079;SDS011;8655;57.106;-2.088;2024-03-08T07:04:22;3.50;;;2.30;;
17079;SDS011;8655;57.106;-2.088;2024-03-08T07:06:51;4.10;;;2.27;;
17079;SDS011;8655;57.106;-2.088;2024-03-08T07:09:17;3.13;;;2.30;;
17079;SDS011;8655;57.106;-2.088;2024-03-08T07:11:43;2.80;;;2.10;;
17079;SDS011;8655;57.106;-2.088;2024-03-08T07:14:08;2.73;;;2.00;;
17079;SDS011;8655;57.106;-2.088;2024-03-08T07:16:34;3.50;;;2.10;;
17079;SDS011;8655;57.106;-2.088;2024-03-08T07:19:04;3.67;;;2.10;;
17079;SDS011;8655;57.106;-2.088;2024-03-08T07:21:30;3.83;;;1.97;;
17079;SDS011;8655;57.106;-2.088;2024-03-08T07:23:56;3.90;;;2.37;;
17079;SDS011;8655;57.106;-2.088;2024-03-08T07:26:25;4.00;;;2.20;;
17079;SDS011;8655;57.106;-2.088;2024-03-08T07:28:51;3.17;;;1.97;;
17079;SDS011;8655;57.106;-2.088;2024-03-08T07:31:17;2.83;;;1.90;;
17079;SDS011;8655;57.106;-2.088;2024-03-08T07:33:48;3.10;;;2.10;;
17079;SDS011;8655;57.106;-2.088;2024-03-08T07:36:15;4.20;;;2.67;;
17079;SDS011;8655;57.106;-2.088;2024-03-08T07:38:41;3.33;;;2.00;;
17079;SDS011;8655;57.106;-2.088;2024-03-08T07:41:07;3.33;;;2.00;;
17079;SDS011;8655;57.106;-2.088;2024-03-08T07:43:32;3.07;;;2.20;;
17079;SDS011;8655;57.106;-2.088;2024-03-08T07:45:58;4.03;;;2.10;;
17079;SDS011;8655;57.106;-2.088;2024-03-08T07:48:24;5.80;;;2.20;;
17079;SDS011;8655;57.106;-2.088;2024-03-08T07:50:49;3.33;;;1.93;;
17079;SDS011;8655;57.106;-2.088;2024-03-08T07:53:15;3.50;;;2.20;;
17079;SDS011;8655;57.106;-2.088;2024-03-08T07:55:41;3.50;;;2.07;;
17079;SDS011;8655;57.106;-2.088;2024-03-08T07:58:08;2.60;;;1.80;;
17079;SDS011;8655;57.106;-2.088;2024-03-08T08:00:36;2.90;;;1.80;;
17079;SDS011;8655;57.106;-2.088;2024-03-08T08:03:02;3.77;;;2.10;;
17079;SDS011;8655;57.106;-2.088;2024-03-08T08:05:28;3.00;;;1.80;;
17079;SDS011;8655;57.106;-2.088;2024-03-08T08:07:54;4.47;;;1.97;;
17079;SDS011;8655;57.106;-2.088;2024-03-08T08:10:21;3.27;;;1.70;;
17079;SDS011;8655;57.106;-2.088;2024-03-08T08:12:47;3.57;;;1.80;;
17079;SDS011;8655;57.106;-2.088;2024-03-08T08:15:13;2.80;;;1.80;;
17079;SDS011;8655;57.106;-2.088;2024-03-08T08:17:40;3.30;;;1.87;;
17079;SDS011;8655;57.106;-2.088;2024-03-08T08:20:10;2.13;;;1.63;;
17079;SDS011;8655;57.106;-2.088;2024-03-08T08:22:37;4.13;;;1.83;;
17079;SDS011;8655;57.106;-2.088;2024-03-08T08:25:04;4.27;;;1.70;;
17079;SDS011;8655;57.106;-2.088;2024-03-08T08:27:30;3.27;;;1.83;;
17079;SDS011;8655;57.106;-2.088;2024-03-08T08:29:56;3.50;;;1.77;;
17079;SDS011;8655;57.106;-2.088;2024-03-08T08:32:22;3.03;;;2.03;;
17079;SDS011;8655;57.106;-2.088;2024-03-08T08:34:48;3.33;;;1.80;;
17079;SDS011;8655;57.106;-2.088;2024-03-08T08:37:13;3.53;;;2.00;;
17079;SDS011;8655;57.106;-2.088;2024-03-08T08:39:39;2.83;;;1.73;;
17079;SDS011;8655;57.106;-2.088;2024-03-08T08:42:04;2.75;;;1.70;;
17079;SDS011;8655;57.106;-2.088;2024-03-08T08:44:31;2.83;;;1.65;;
17079;SDS011;8655;57.106;-2.088;2024-03-08T08:46:57;2.10;;;1.65;;
17079;SDS011;8655;57.106;-2.088;2024-03-08T08:49:23;3.30;;;1.90;;
17079;SDS011;8655;57.106;-2.088;2024-03-08T08:51:49;2.58;;;1.85;;
17079;SDS011;8655;57.106;-2.088;2024-03-08T08:54:15;2.60;;;1.58;;
17079;SDS011;8655;57.106;-2.088;2024-03-08T08:56:42;3.00;;;1.65;;
17079;SDS011;8655;57.106;-2.088;2024-03-08T08:59:12;3.33;;;1.90;;
17079;SDS011;8655;57.106;-2.088;2024-03-08T09:01:44;1.50;;;1.40;;
17079;SDS011;8655;57.106;-2.088;2024-03-08T09:04:12;3.13;;;1.63;;
17079;SDS011;8655;57.106;-2.088;2024-03-08T09:06:38;2.78;;;1.95;;
17079;SDS011;8655;57.106;-2.088;2024-03-08T09:09:06;2.80;;;1.63;;
17079;SDS011;8655;57.106;-2.088;2024-03-08T09:11:36;3.92;;;2.10;;
17079;SDS011;8655;57.106;-2.088;2024-03-08T09:14:06;3.08;;;1.85;;
17079;SDS011;8655;57.106;-2.088;2024-03-08T09:16:32;2.83;;;1.65;;
17079;SDS011;8655;57.106;-2.088;2024-03-08T09:18:58;3.95;;;1.95;;
17079;SDS011;8655;57.106;-2.088;2024-03-08T09:21:24;2.85;;;1.90;;
17079;SDS011;8655;57.106;-2.088;2024-03-08T09:23:51;2.95;;;1.70;;
17079;SDS011;8655;57.106;-2.088;2024-03-08T09:26:17;4.43;;;1.90;;
17079;SDS011;8655;57.106;-2.088;2024-03-08T09:28:42;2.83;;;1.60;;
17079;SDS011;8655;57.106;-2.088;2024-03-08T09:31:08;4.20;;;1.98;;
17079;SDS011;8655;57.106;-2.088;2024-03-08T09:33:36;3.25;;;1.60;;
17079;SDS011;8655;57.106;-2.088;2024-03-08T09:36:02;3.05;;;1.90;;
17079;SDS011;8655;57.106;-2.088;2024-03-08T09:38:29;3.33;;;1.88;;
17079;SDS011;8655;57.106;-2.088;2024-03-08T09:40:54;3.63;;;2.03;;
17079;SDS011;8655;57.106;-2.088;2024-03-08T09:43:22;3.05;;;1.80;;
17079;SDS011;8655;57.106;-2.088;2024-03-08T09:45:49;3.47;;;2.03;;
17079;SDS011;8655;57.106;-2.088;2024-03-08T09:48:16;5.60;;;2.20;;
17079;SDS011;8655;57.106;-2.088;2024-03-08T09:50:44;2.88;;;1.80;;
17079;SDS011;8655;57.106;-2.088;2024-03-08T09:53:11;4.03;;;1.85;;
17079;SDS011;8655;57.106;-2.088;2024-03-08T09:55:37;2.13;;;1.80;;
17079;SDS011;8655;57.106;-2.088;2024-03-08T09:58:13;3.88;;;1.70;;
17079;SDS011;8655;57.106;-2.088;2024-03-08T10:00:53;2.97;;;1.90;;
17079;SDS011;8655;57.106;-2.088;2024-03-08T10:03:27;2.83;;;1.80;;
17079;SDS011;8655;57.106;-2.088;2024-03-08T10:05:53;4.13;;;2.10;;
17079;SDS011;8655;57.106;-2.088;2024-03-08T10:08:25;3.50;;;2.00;;
17079;SDS011;8655;57.106;-2.088;2024-03-08T10:10:52;2.55;;;2.00;;
17079;SDS011;8655;57.106;-2.088;2024-03-08T10:13:17;3.20;;;1.95;;
17079;SDS011;8655;57.106;-2.088;2024-03-08T10:15:44;4.32;;;2.22;;
17079;SDS011;8655;57.106;-2.088;2024-03-08T10:18:10;3.10;;;1.80;;
17079;SDS011;8655;57.106;-2.088;2024-03-08T10:20:36;4.55;;;2.10;;
17079;SDS011;8655;57.106;-2.088;2024-03-08T10:23:02;2.97;;;1.95;;
17079;SDS011;8655;57.106;-2.088;2024-03-08T10:25:30;5.00;;;1.90;;
17079;SDS011;8655;57.106;-2.088;2024-03-08T10:27:56;3.13;;;1.90;;
17079;SDS011;8655;57.106;-2.088;2024-03-08T10:30:22;3.03;;;2.00;;
17079;SDS011;8655;57.106;-2.088;2024-03-08T10:32:48;2.95;;;2.00;;
17079;SDS011;8655;57.106;-2.088;2024-03-08T10:35:14;4.17;;;2.40;;
17079;SDS011;8655;57.106;-2.088;2024-03-08T10:37:45;3.58;;;1.90;;
17079;SDS011;8655;57.106;-2.088;2024-03-08T10:40:18;3.25;;;1.73;;
17079;SDS011;8655;57.106;-2.088;2024-03-08T10:42:55;3.13;;;1.95;;
17079;SDS011;8655;57.106;-2.088;2024-03-08T10:50:43;3.72;;;1.98;;
17079;SDS011;8655;57.106;-2.088;2024-03-08T10:53:15;3.67;;;2.20;;
17079;SDS011;8655;57.106;-2.088;2024-03-08T10:55:42;2.40;;;1.95;;
17079;SDS011;8655;57.106;-2.088;2024-03-08T10:58:09;2.30;;;2.00;;
17079;SDS011;8655;57.106;-2.088;2024-03-08T11:00:35;3.33;;;2.10;;
17079;SDS011;8655;57.106;-2.088;2024-03-08T11:03:02;3.13;;;2.10;;
17079;SDS011;8655;57.106;-2.088;2024-03-08T11:05:38;4.70;;;2.30;;
17079;SDS011;8655;57.106;-2.088;2024-03-08T11:08:14;4.03;;;2.00;;
17079;SDS011;8655;57.106;-2.088;2024-03-08T11:16:11;3.67;;;2.20;;
17079;SDS011;8655;57.106;-2.088;2024-03-08T11:19:01;3.53;;;2.63;;
17079;SDS011;8655;57.106;-2.088;2024-03-08T11:21:51;3.20;;;2.13;;
17079;SDS011;8655;57.106;-2.088;2024-03-08T11:24:22;2.93;;;2.20;;
17079;SDS011;8655;57.106;-2.088;2024-03-08T11:26:48;4.27;;;2.40;;
17079;SDS011;8655;57.106;-2.088;2024-03-08T11:34:34;2.63;;;2.27;;
17079;SDS011;8655;57.106;-2.088;2024-03-08T11:37:00;3.57;;;2.70;;
17079;SDS011;8655;57.106;-2.088;2024-03-08T11:39:28;3.30;;;2.43;;
17079;SDS011;8655;57.106;-2.088;2024-03-08T11:41:55;3.20;;;2.43;;
17079;SDS011;8655;57.106;-2.088;2024-03-08T11:44:21;3.30;;;2.50;;
17079;SDS011;8655;57.106;-2.088;2024-03-08T11:46:52;4.07;;;2.43;;
17079;SDS011;8655;57.106;-2.088;2024-03-08T11:49:19;2.80;;;2.30;;
17079;SDS011;8655;57.106;-2.088;2024-03-08T11:51:45;4.00;;;2.23;;
17079;SDS011;8655;57.106;-2.088;2024-03-08T11:54:12;4.23;;;2.50;;
17079;SDS011;8655;57.106;-2.088;2024-03-08T11:56:38;3.23;;;2.50;;
17079;SDS011;8655;57.106;-2.088;2024-03-08T11:59:05;3.80;;;2.57;;
17079;SDS011;8655;57.106;-2.088;2024-03-08T12:01:37;2.87;;;2.23;;
17079;SDS011;8655;57.106;-2.088;2024-03-08T12:04:03;4.10;;;2.60;;
17079;SDS011;8655;57.106;-2.088;2024-03-08T12:06:38;3.13;;;2.60;;
17079;SDS011;8655;57.106;-2.088;2024-03-08T12:09:08;3.47;;;2.70;;
17079;SDS011;8655;57.106;-2.088;2024-03-08T12:11:35;3.77;;;2.70;;
17079;SDS011;8655;57.106;-2.088;2024-03-08T12:14:02;3.30;;;2.43;;
17079;SDS011;8655;57.106;-2.088;2024-03-08T12:16:28;3.40;;;2.53;;
17079;SDS011;8655;57.106;-2.088;2024-03-08T12:18:54;4.60;;;3.10;;
17079;SDS011;8655;57.106;-2.088;2024-03-08T12:21:20;3.87;;;2.70;;
17079;SDS011;8655;57.106;-2.088;2024-03-08T12:23:51;3.80;;;2.90;;
17079;SDS011;8655;57.106;-2.088;2024-03-08T12:26:36;4.23;;;3.07;;
17079;SDS011;8655;57.106;-2.088;2024-03-08T12:29:16;4.37;;;2.73;;
17079;SDS011;8655;57.106;-2.088;2024-03-08T12:31:42;3.77;;;2.80;;
17079;SDS011;8655;57.106;-2.088;2024-03-08T12:34:08;5.13;;;3.20;;
17079;SDS011;8655;57.106;-2.088;2024-03-08T12:36:35;5.22;;;3.20;;
17079;SDS011;8655;57.106;-2.088;2024-03-08T12:39:01;5.60;;;3.13;;
17079;SDS011;8655;57.106;-2.088;2024-03-08T12:41:28;4.40;;;3.00;;
17079;SDS011;8655;57.106;-2.088;2024-03-08T12:43:54;3.07;;;2.67;;
17079;SDS011;8655;57.106;-2.088;2024-03-08T12:46:21;3.80;;;3.00;;
17079;SDS011;8655;57.106;-2.088;2024-03-08T12:48:47;3.77;;;2.60;;
17079;SDS011;8655;57.106;-2.088;2024-03-08T12:51:13;3.93;;;2.80;;
17079;SDS011;8655;57.106;-2.088;2024-03-08T12:53:41;4.00;;;3.07;;
17079;SDS011;8655;57.106;-2.088;2024-03-08T12:56:28;4.63;;;2.90;;
17079;SDS011;8655;57.106;-2.088;2024-03-08T12:58:55;4.67;;;3.23;;
17079;SDS011;8655;57.106;-2.088;2024-03-08T13:01:21;5.37;;;3.20;;
17079;SDS011;8655;57.106;-2.088;2024-03-08T13:03:47;4.13;;;3.03;;
17079;SDS011;8655;57.106;-2.088;2024-03-08T13:06:14;4.80;;;3.30;;
17079;SDS011;8655;57.106;-2.088;2024-03-08T13:08:41;4.70;;;3.20;;
17079;SDS011;8655;57.106;-2.088;2024-03-08T13:11:08;4.43;;;2.90;;
17079;SDS011;8655;57.106;-2.088;2024-03-08T13:13:36;3.77;;;2.97;;
17079;SDS011;8655;57.106;-2.088;2024-03-08T13:16:03;4.57;;;3.23;;
17079;SDS011;8655;57.106;-2.088;2024-03-08T13:18:33;5.33;;;3.40;;
17079;SDS011;8655;57.106;-2.088;2024-03-08T13:20:58;5.13;;;3.17;;
17079;SDS011;8655;57.106;-2.088;2024-03-08T13:23:24;4.63;;;3.10;;
17079;SDS011;8655;57.106;-2.088;2024-03-08T13:25:50;5.40;;;3.63;;
17079;SDS011;8655;57.106;-2.088;2024-03-08T13:28:15;5.63;;;3.43;;
17079;SDS011;8655;57.106;-2.088;2024-03-08T13:30:44;4.77;;;3.30;;
17079;SDS011;8655;57.106;-2.088;2024-03-08T13:33:10;4.60;;;3.10;;
17079;SDS011;8655;57.106;-2.088;2024-03-08T13:35:36;4.70;;;3.47;;
17079;SDS011;8655;57.106;-2.088;2024-03-08T13:38:03;5.10;;;3.67;;
17079;SDS011;8655;57.106;-2.088;2024-03-08T13:40:29;6.37;;;3.47;;
17079;SDS011;8655;57.106;-2.088;2024-03-08T13:42:56;6.10;;;3.50;;
17079;SDS011;8655;57.106;-2.088;2024-03-08T13:45:21;5.23;;;3.70;;
17079;SDS011;8655;57.106;-2.088;2024-03-08T13:47:49;5.40;;;3.73;;
17079;SDS011;8655;57.106;-2.088;2024-03-08T13:50:16;4.60;;;3.40;;
17079;SDS011;8655;57.106;-2.088;2024-03-08T13:52:46;4.50;;;3.37;;
17079;SDS011;8655;57.106;-2.088;2024-03-08T13:55:14;4.57;;;3.53;;
17079;SDS011;8655;57.106;-2.088;2024-03-08T13:57:40;5.07;;;3.20;;
17079;SDS011;8655;57.106;-2.088;2024-03-08T14:00:06;5.43;;;3.50;;
17079;SDS011;8655;57.106;-2.088;2024-03-08T14:02:32;5.37;;;3.67;;
17079;SDS011;8655;57.106;-2.088;2024-03-08T14:04:59;4.80;;;3.17;;
17079;SDS011;8655;57.106;-2.088;2024-03-08T14:07:26;6.53;;;3.70;;
17079;SDS011;8655;57.106;-2.088;2024-03-08T14:09:54;5.37;;;3.73;;
17079;SDS011;8655;57.106;-2.088;2024-03-08T14:12:19;5.07;;;3.87;;
17079;SDS011;8655;57.106;-2.088;2024-03-08T14:14:45;4.77;;;3.37;;
17079;SDS011;8655;57.106;-2.088;2024-03-08T14:17:11;5.07;;;3.47;;
17079;SDS011;8655;57.106;-2.088;2024-03-08T14:19:42;5.33;;;3.87;;
17079;SDS011;8655;57.106;-2.088;2024-03-08T14:22:07;5.33;;;3.40;;
17079;SDS011;8655;57.106;-2.088;2024-03-08T14:24:35;5.23;;;3.67;;
17079;SDS011;8655;57.106;-2.088;2024-03-08T14:27:02;5.37;;;3.30;;
17079;SDS011;8655;57.106;-2.088;2024-03-08T14:29:28;4.63;;;3.60;;
17079;SDS011;8655;57.106;-2.088;2024-03-08T14:31:57;4.63;;;3.20;;
17079;SDS011;8655;57.106;-2.088;2024-03-08T14:34:24;5.40;;;4.10;;
17079;SDS011;8655;57.106;-2.088;2024-03-08T14:36:52;4.77;;;3.70;;
17079;SDS011;8655;57.106;-2.088;2024-03-08T14:39:18;5.60;;;3.70;;
17079;SDS011;8655;57.106;-2.088;2024-03-08T14:41:47;6.13;;;3.53;;
17079;SDS011;8655;57.106;-2.088;2024-03-08T14:44:13;5.20;;;3.53;;
17079;SDS011;8655;57.106;-2.088;2024-03-08T14:46:39;5.93;;;3.83;;
17079;SDS011;8655;57.106;-2.088;2024-03-08T14:49:07;7.13;;;4.13;;
17079;SDS011;8655;57.106;-2.088;2024-03-08T14:51:33;5.20;;;3.60;;
17079;SDS011;8655;57.106;-2.088;2024-03-08T14:54:00;6.27;;;3.50;;
17079;SDS011;8655;57.106;-2.088;2024-03-08T14:56:25;7.30;;;3.77;;
17079;SDS011;8655;57.106;-2.088;2024-03-08T14:58:52;5.63;;;3.80;;
17079;SDS011;8655;57.106;-2.088;2024-03-08T15:01:18;6.33;;;3.47;;
17079;SDS011;8655;57.106;-2.088;2024-03-08T15:03:49;5.87;;;3.53;;